NO-0011 weather

Henning (Nedre Langli)
Steinkjer, Nord-Trøndelag, Norway

Public forecast

Using degrees Celsius for public forecast. Weather courtesy of forecast.io.

METAR (pilot weather report)

Closest report is Namsos Høknesøra Airport, 32.5 nm (60.1 km) N. Retrieved 2019/07/23 17:20 UTC (27 minutes ago):

ENNM 231720Z 21004KT CAVOK 19/13 Q1016

TAF (pilot weather forecast)

Closest forecast is Trondheim Airport Værnes, 33.5 nm (62.0 km) SSW. Retrieved 2019/07/23 12:57 UTC (5 hours ago):

TAF ENVA 231100Z 2312/2412 27008KT 9999 FEW020 SCT040